< < Back
Terminal Aerodrome Forecast


Current Version              Previous Versions:   1  2  3  4  5  6  7  8  9  

Terminal Aerodrome Forecast

136
FTUS42 KJAX 311301 AAB
TAFJAX
TAF AMD
KJAX 311301Z 3113/0112 VRB04KT P6SM SCT008 BKN120
      TEMPO 3113/3115 4SM BR OVC008
     FM311800 18008KT P6SM VCTS SCT025CB BKN040
     FM010000 20004KT P6SM SCT020 BKN100=

Latest METAR

128
SAUS80 KWBC 311300
MTRJAX
METAR KJAX 311256Z 24003KT 2SM BR BKN009 BKN019 BKN250 24/24 A3004 RMK
AO2 SFC VIS 4 SLP173 T02440239


USA.gov is the U.S. government's official web portal to all federal, state and local government web resources and services.